Time;durP1;ratioP1;P1;durP2;ratioP2;P2;SDS_P1;SDS_P2;PMS_P1;PMS_P2;Temp;Humidity;BMP_temperature;BMP_pressure;BME280_temperature;BME280_humidity;BME280_pressure;Samples;Min_cycle;Max_cycle;Signal;HPM_P1;HPM_P2
2022/03/10 00:00:23;;;;;;;82.07;14.00;;;4.40;1.00;;;;;;4992768;28;20174;-86
2022/03/10 00:02:48;;;;;;;76.90;11.83;;;4.40;1.00;;;;;;4994294;28;20177;-86
2022/03/10 00:05:15;;;;;;;82.63;14.00;;;4.30;1.00;;;;;;4993907;28;20189;-86
2022/03/10 00:07:42;;;;;;;78.60;12.52;;;4.30;1.00;;;;;;4993921;28;20197;-86
2022/03/10 00:10:08;;;;;;;75.97;13.93;;;4.30;1.00;;;;;;4993954;28;20250;-86
2022/03/10 00:12:34;;;;;;;73.50;12.40;;;4.20;1.00;;;;;;4993911;28;20163;-86
2022/03/10 00:15:03;;;;;;;77.45;15.23;;;4.20;1.00;;;;;;4994145;28;20657;-86
2022/03/10 00:17:29;;;;;;;77.07;13.43;;;4.20;1.00;;;;;;4993707;28;20280;-86
2022/03/10 00:19:55;;;;;;;77.87;13.60;;;4.30;1.00;;;;;;4992601;28;20261;-86
2022/03/10 00:22:21;;;;;;;79.10;13.33;;;4.30;1.00;;;;;;4993031;28;20269;-86
2022/03/10 00:24:46;;;;;;;79.00;12.90;;;4.40;1.00;;;;;;4993795;28;20197;-86
2022/03/10 00:27:12;;;;;;;75.43;13.03;;;4.40;1.00;;;;;;4993935;28;20438;-86
2022/03/10 00:29:37;;;;;;;80.47;14.00;;;4.30;1.00;;;;;;4993721;28;20166;-86
2022/03/10 00:32:03;;;;;;;79.37;13.40;;;4.30;1.00;;;;;;4993654;28;20163;-86
2022/03/10 00:34:30;;;;;;;77.07;12.82;;;4.20;1.00;;;;;;4993931;28;20597;-86
2022/03/10 00:36:56;;;;;;;74.78;12.13;;;4.20;1.00;;;;;;4993566;28;20178;-86
2022/03/10 00:39:21;;;;;;;77.80;13.00;;;4.20;1.00;;;;;;4993616;28;20224;-86
2022/03/10 00:41:47;;;;;;;78.60;15.50;;;4.10;1.00;;;;;;4993604;28;20155;-86
2022/03/10 00:44:12;;;;;;;79.27;15.23;;;4.00;1.00;;;;;;4993670;28;20169;-86
2022/03/10 00:46:38;;;;;;;79.03;16.33;;;4.00;1.00;;;;;;4992203;28;20209;-86
2022/03/10 00:49:04;;;;;;;82.43;17.17;;;3.90;1.00;;;;;;4993573;28;20530;-86
2022/03/10 00:51:29;;;;;;;80.83;15.53;;;3.80;1.00;;;;;;4994017;28;20638;-86
2022/03/10 00:53:55;;;;;;;81.83;16.10;;;3.70;1.00;;;;;;4993792;28;20174;-86
2022/03/10 00:56:21;;;;;;;83.53;14.67;;;3.50;1.00;;;;;;4993456;28;20558;-86
2022/03/10 00:58:46;;;;;;;81.80;14.10;;;3.50;1.00;;;;;;4993444;28;20671;-86
2022/03/10 01:01:12;;;;;;;77.40;13.13;;;3.60;1.00;;;;;;4992155;28;20690;-86
2022/03/10 01:03:38;;;;;;;79.80;13.57;;;3.50;1.00;;;;;;4992184;28;20171;-86
2022/03/10 01:06:03;;;;;;;77.90;13.80;;;3.40;1.00;;;;;;4996151;28;20678;-86
2022/03/10 01:08:29;;;;;;;81.97;15.27;;;3.40;1.00;;;;;;4997109;28;20166;-86
2022/03/10 01:10:54;;;;;;;75.80;13.83;;;3.40;1.00;;;;;;4997497;28;20163;-86
2022/03/10 01:13:20;;;;;;;78.23;12.90;;;3.40;1.00;;;;;;4997246;28;20214;-86
2022/03/10 01:15:47;;;;;;;76.77;13.10;;;3.40;1.00;;;;;;4996960;28;20197;-86
2022/03/10 01:18:14;;;;;;;80.72;15.80;;;3.50;1.00;;;;;;4996986;28;20565;-86
2022/03/10 01:20:40;;;;;;;81.70;16.10;;;3.50;1.00;;;;;;4996811;28;20179;-86
2022/03/10 01:23:06;;;;;;;77.22;12.73;;;3.40;1.00;;;;;;4997105;28;20294;-86
2022/03/10 01:25:31;;;;;;;84.37;16.50;;;3.40;1.00;;;;;;4995427;28;20214;-86
2022/03/10 01:27:57;;;;;;;85.57;16.43;;;3.40;1.00;;;;;;4997162;28;20638;-85
2022/03/10 01:30:23;;;;;;;78.87;15.40;;;3.40;1.00;;;;;;4996823;28;20626;-86
2022/03/10 01:32:49;;;;;;;80.93;15.37;;;3.50;1.00;;;;;;4996691;28;20649;-86
2022/03/10 01:35:17;;;;;;;81.00;16.83;;;3.50;1.00;;;;;;4996986;28;20441;-86
2022/03/10 01:37:43;;;;;;;81.57;17.20;;;3.40;1.00;;;;;;4996705;28;20189;-86
2022/03/10 01:40:17;;;;;;;80.20;17.10;;;3.40;1.00;;;;;;4996833;28;20179;-86
2022/03/10 01:42:43;;;;;;;79.95;16.63;;;3.50;1.00;;;;;;4995550;28;20186;-86
2022/03/10 01:45:10;;;;;;;80.85;16.33;;;3.50;1.00;;;;;;4995226;28;20270;-86
2022/03/10 01:47:37;;;;;;;82.57;16.80;;;3.40;1.00;;;;;;4996391;28;20550;-86
2022/03/10 01:50:04;;;;;;;82.47;19.52;;;3.40;1.00;;;;;;4996389;28;20163;-86
2022/03/10 01:52:30;;;;;;;79.53;18.90;;;3.30;1.00;;;;;;4996322;28;20174;-86
2022/03/10 01:54:57;;;;;;;82.97;18.83;;;3.30;1.00;;;;;;4996297;28;20169;-86
2022/03/10 01:57:26;;;;;;;80.88;18.30;;;3.30;1.00;;;;;;4996512;28;20182;-86
2022/03/10 01:59:53;;;;;;;84.38;16.52;;;3.30;1.00;;;;;;4996263;28;20191;-86
2022/03/10 02:02:18;;;;;;;79.63;19.52;;;3.40;1.00;;;;;;4996433;28;20530;-86
2022/03/10 02:04:44;;;;;;;84.93;19.00;;;3.30;1.00;;;;;;4996406;28;20166;-86
2022/03/10 02:10:16;;;;;;;80.40;19.67;;;3.20;1.00;;;;;;4994750;28;20183;-86
2022/03/10 02:12:41;;;;;;;81.00;18.13;;;3.20;1.00;;;;;;4995954;28;20173;-86
2022/03/10 02:17:57;;;;;;;77.53;16.85;;;3.10;1.00;;;;;;4995313;28;20166;-86
2022/03/10 02:20:23;;;;;;;83.40;16.77;;;3.10;1.00;;;;;;4996161;28;20175;-86
2022/03/10 02:22:49;;;;;;;79.78;15.88;;;3.00;1.00;;;;;;4996318;28;20626;-86
2022/03/10 02:25:16;;;;;;;81.13;16.53;;;2.90;1.00;;;;;;4995925;28;20197;-86
2022/03/10 02:27:47;;;;;;;79.45;17.05;;;3.00;1.00;;;;;;4995481;28;20450;-86
2022/03/10 02:30:13;;;;;;;77.20;16.33;;;3.00;1.00;;;;;;4995739;28;20151;-86
2022/03/10 02:32:38;;;;;;;83.60;17.93;;;3.10;1.00;;;;;;4995934;28;20258;-86
2022/03/10 02:35:04;;;;;;;82.00;16.47;;;3.00;1.00;;;;;;4995628;28;20198;-86
2022/03/10 02:37:30;;;;;;;80.20;15.93;;;3.00;1.00;;;;;;4995559;28;20265;-86
2022/03/10 02:39:56;;;;;;;85.03;15.37;;;3.10;1.00;;;;;;4995464;28;20410;-86
2022/03/10 02:42:21;;;;;;;81.50;15.70;;;3.10;1.00;;;;;;4995440;28;20264;-86
2022/03/10 02:44:48;;;;;;;81.33;17.37;;;3.10;1.00;;;;;;4995350;28;20202;-86
2022/03/10 02:47:15;;;;;;;78.50;14.88;;;3.00;1.00;;;;;;4995541;28;20524;-86
2022/03/10 02:49:41;;;;;;;81.15;14.23;;;2.80;4.30;;;;;;4995333;28;20166;-86
2022/03/10 02:52:08;;;;;;;86.13;15.20;;;2.70;7.60;;;;;;4995310;28;20587;-86
2022/03/10 02:54:34;;;;;;;80.35;15.05;;;2.70;9.50;;;;;;4995219;28;20241;-86
2022/03/10 02:57:00;;;;;;;85.63;15.40;;;2.60;13.00;;;;;;4995359;28;20269;-86
2022/03/10 02:59:26;;;;;;;84.90;15.43;;;2.50;16.90;;;;;;4995116;28;20159;-86
2022/03/10 03:01:51;;;;;;;79.57;15.10;;;2.40;20.30;;;;;;4995609;28;20583;-86
2022/03/10 03:04:17;;;;;;;82.57;15.07;;;2.40;18.70;;;;;;4995408;28;20242;-86
2022/03/10 03:06:43;;;;;;;79.87;14.10;;;2.50;17.90;;;;;;4994804;28;20869;-86
2022/03/10 03:09:09;;;;;;;80.67;14.63;;;2.40;18.30;;;;;;4994970;28;20158;-86
2022/03/10 03:11:34;;;;;;;79.20;13.57;;;2.50;18.30;;;;;;4994922;28;20241;-86
2022/03/10 03:14:01;;;;;;;88.63;14.27;;;2.40;17.50;;;;;;4995466;28;20158;-86
2022/03/10 03:16:28;;;;;;;79.20;13.82;;;2.40;18.00;;;;;;4994719;28;20183;-86
2022/03/10 03:18:54;;;;;;;84.20;14.98;;;2.40;18.20;;;;;;4994768;28;20249;-86
2022/03/10 03:21:20;;;;;;;77.03;14.57;;;2.40;19.10;;;;;;4994753;28;20210;-86
2022/03/10 03:23:46;;;;;;;78.50;14.77;;;2.30;17.70;;;;;;4993437;28;20420;-86
2022/03/10 03:26:12;;;;;;;84.50;15.70;;;2.30;21.60;;;;;;4994531;28;20202;-86
2022/03/10 03:28:38;;;;;;;85.97;14.93;;;2.20;22.60;;;;;;4993837;28;20155;-86
2022/03/10 03:31:04;;;;;;;79.30;13.77;;;2.20;23.60;;;;;;4994923;28;20767;-86
2022/03/10 03:33:30;;;;;;;80.80;13.77;;;2.30;23.70;;;;;;4994722;28;20425;-85
2022/03/10 03:35:56;;;;;;;83.47;14.45;;;2.30;23.20;;;;;;4994466;28;20193;-86
2022/03/10 03:38:22;;;;;;;82.70;14.90;;;2.20;26.40;;;;;;4994542;28;20534;-86
2022/03/10 03:40:48;;;;;;;80.60;14.55;;;2.20;25.80;;;;;;4994602;28;20650;-86
2022/03/10 03:43:17;;;;;;;79.97;13.90;;;2.20;26.20;;;;;;4994720;28;20167;-86
2022/03/10 03:45:43;;;;;;;82.70;15.73;;;2.20;25.00;;;;;;4994218;28;20190;-86
2022/03/10 03:48:09;;;;;;;78.67;14.40;;;2.20;27.10;;;;;;4994731;28;20171;-86
2022/03/10 03:50:34;;;;;;;107.50;18.55;;;2.10;28.70;;;;;;4994354;28;20181;-86
2022/03/10 03:53:00;;;;;;;82.90;15.17;;;2.10;29.40;;;;;;4994315;28;20178;-86
2022/03/10 03:55:27;;;;;;;83.47;15.27;;;2.20;28.40;;;;;;4994230;28;20578;-86
2022/03/10 03:57:53;;;;;;;85.40;15.68;;;2.20;27.70;;;;;;4994631;28;20183;-86
2022/03/10 04:00:19;;;;;;;79.07;14.00;;;2.10;27.50;;;;;;4993120;28;20181;-86
2022/03/10 04:02:45;;;;;;;80.00;14.13;;;2.10;26.70;;;;;;4993010;28;20258;-86
2022/03/10 04:05:12;;;;;;;89.70;14.95;;;2.10;26.70;;;;;;4992825;28;20454;-86
2022/03/10 04:07:41;;;;;;;82.88;15.75;;;2.00;27.40;;;;;;4994306;28;20179;-86
2022/03/10 04:10:08;;;;;;;80.68;14.45;;;2.00;29.40;;;;;;4994572;28;20170;-86
2022/03/10 04:12:34;;;;;;;84.60;15.88;;;2.00;29.30;;;;;;4994273;28;20173;-86
2022/03/10 04:15:01;;;;;;;83.05;16.23;;;2.00;29.50;;;;;;4994556;28;20661;-86
2022/03/10 04:17:27;;;;;;;87.03;14.07;;;1.90;30.60;;;;;;4994630;28;20193;-85
2022/03/10 04:19:53;;;;;;;85.40;15.48;;;1.90;32.50;;;;;;4994576;28;20171;-86
2022/03/10 04:22:19;;;;;;;83.10;15.50;;;1.90;33.20;;;;;;4994180;28;20174;-86
2022/03/10 04:24:45;;;;;;;83.00;14.73;;;1.90;33.60;;;;;;4994351;28;20401;-86
2022/03/10 04:27:16;;;;;;;79.50;14.83;;;1.90;34.40;;;;;;4993053;28;20198;-86
2022/03/10 04:29:44;;;;;;;86.10;15.57;;;2.00;33.00;;;;;;4994380;28;20402;-85
2022/03/10 04:32:10;;;;;;;81.80;15.05;;;2.00;31.30;;;;;;4994334;28;20222;-86
2022/03/10 04:34:35;;;;;;;85.23;16.13;;;2.00;34.40;;;;;;4994440;28;20642;-86
2022/03/10 04:37:04;;;;;;;82.43;15.60;;;1.90;35.40;;;;;;4994251;28;20195;-86
2022/03/10 04:39:29;;;;;;;79.93;15.43;;;1.80;37.20;;;;;;4994972;28;20638;-86
2022/03/10 04:41:55;;;;;;;82.40;13.77;;;1.60;40.00;;;;;;4998551;28;20217;-86
2022/03/10 04:44:21;;;;;;;84.13;14.07;;;1.60;43.10;;;;;;4998286;28;20217;-86
2022/03/10 04:46:46;;;;;;;84.60;15.30;;;1.60;41.10;;;;;;4996847;28;20216;-85
2022/03/10 04:49:25;;;;;;;80.57;15.10;;;1.70;39.30;;;;;;4998418;28;20167;-86
2022/03/10 04:51:51;;;;;;;82.65;14.63;;;1.70;38.60;;;;;;5000230;28;20155;-85
2022/03/10 04:54:17;;;;;;;81.63;15.13;;;1.70;39.20;;;;;;4998440;28;20197;-85
2022/03/10 04:56:43;;;;;;;81.70;14.30;;;1.70;40.50;;;;;;4996982;28;20186;-85
2022/03/10 04:59:08;;;;;;;79.97;14.50;;;1.60;43.10;;;;;;4997262;28;20541;-85
2022/03/10 05:01:34;;;;;;;82.77;14.53;;;1.50;44.90;;;;;;4996842;28;20167;-85
2022/03/10 05:03:59;;;;;;;86.37;14.73;;;1.40;47.10;;;;;;4998111;28;20171;-86
2022/03/10 05:06:25;;;;;;;82.07;15.07;;;1.40;48.10;;;;;;4998225;28;20708;-86
2022/03/10 05:11:24;;;;;;;85.22;16.23;;;1.50;45.90;;;;;;4999524;28;20257;-86
2022/03/10 05:13:50;;;;;;;81.47;15.30;;;1.50;46.80;;;;;;5016374;28;20163;-87
2022/03/10 05:16:15;;;;;;;83.20;15.07;;;1.50;46.10;;;;;;4999729;28;20252;-86
2022/03/10 05:18:43;;;;;;;79.20;13.77;;;1.50;45.50;;;;;;5000484;28;20185;-86
2022/03/10 05:21:08;;;;;;;84.32;14.10;;;1.60;44.50;;;;;;4999676;28;20159;-86
2022/03/10 05:23:34;;;;;;;80.93;14.10;;;1.60;43.30;;;;;;4998524;28;20178;-87
2022/03/10 05:26:00;;;;;;;85.60;13.40;;;1.60;42.90;;;;;;4998134;28;20652;-86
2022/03/10 05:28:25;;;;;;;84.60;15.93;;;1.60;43.00;;;;;;4998606;28;20261;-86
2022/03/10 05:30:51;;;;;;;83.97;14.67;;;1.60;44.20;;;;;;4999647;28;20162;-86
2022/03/10 05:33:17;;;;;;;80.18;13.40;;;1.60;44.00;;;;;;4998516;28;20170;-87
2022/03/10 05:35:43;;;;;;;80.70;13.83;;;1.60;42.40;;;;;;4999565;28;20167;-87
2022/03/10 05:38:08;;;;;;;83.07;14.77;;;1.70;42.10;;;;;;4998109;28;20226;-86
2022/03/10 05:40:34;;;;;;;87.37;15.23;;;1.60;44.20;;;;;;4999395;28;20194;-86
2022/03/10 05:43:00;;;;;;;88.00;15.47;;;1.60;45.00;;;;;;4999521;28;20163;-87
2022/03/10 05:45:26;;;;;;;82.80;13.17;;;1.60;44.60;;;;;;4999937;28;20191;-87
2022/03/10 05:47:54;;;;;;;82.50;14.57;;;1.50;44.30;;;;;;4999296;28;20163;-87
2022/03/10 05:50:20;;;;;;;83.72;15.50;;;1.50;45.30;;;;;;4999402;28;20497;-87
2022/03/10 05:52:47;;;;;;;87.18;16.52;;;1.50;45.00;;;;;;4998345;28;20192;-87
2022/03/10 05:55:14;;;;;;;85.55;17.63;;;1.50;45.80;;;;;;4999461;28;20162;-86
2022/03/10 05:57:40;;;;;;;84.45;15.63;;;1.60;45.80;;;;;;4998905;28;20189;-86
2022/03/10 06:00:07;;;;;;;78.95;13.85;;;1.60;46.60;;;;;;4998293;28;20186;-86
2022/03/10 06:02:34;;;;;;;80.13;14.50;;;1.60;46.60;;;;;;4997765;28;20170;-87
2022/03/10 06:05:00;;;;;;;90.17;15.10;;;1.50;47.40;;;;;;4997902;28;20205;-87
2022/03/10 06:07:30;;;;;;;85.60;15.93;;;1.50;48.60;;;;;;4998539;28;20186;-87
2022/03/10 06:09:56;;;;;;;86.28;20.70;;;1.50;47.90;;;;;;4999297;28;20182;-86
2022/03/10 06:12:30;;;;;;;85.22;19.65;;;1.30;49.60;;;;;;4999587;28;20198;-86
2022/03/10 06:14:57;;;;;;;85.97;19.00;;;1.40;50.60;;;;;;4999676;28;20179;-86
2022/03/10 06:17:23;;;;;;;84.50;16.88;;;1.40;50.40;;;;;;4999387;28;20591;-87
2022/03/10 06:19:49;;;;;;;84.28;19.83;;;1.40;50.60;;;;;;4997788;28;20174;-87
2022/03/10 06:22:19;;;;;;;88.97;18.80;;;1.30;51.70;;;;;;4998910;28;20163;-86
2022/03/10 06:24:45;;;;;;;91.72;16.02;;;1.40;51.40;;;;;;4998976;28;20166;-86
2022/03/10 06:27:15;;;;;;;84.25;18.38;;;1.50;48.40;;;;;;4998696;28;20232;-87
2022/03/10 06:29:42;;;;;;;84.50;20.05;;;1.60;48.00;;;;;;4999629;28;20163;-87
2022/03/10 06:32:08;;;;;;;84.28;18.73;;;1.60;47.90;;;;;;4999924;28;20170;-86
2022/03/10 06:34:37;;;;;;;85.63;20.13;;;1.70;47.00;;;;;;4998417;28;20177;-87
2022/03/10 06:37:04;;;;;;;86.70;16.13;;;1.80;46.70;;;;;;5002464;28;20194;-87
2022/03/10 06:39:29;;;;;;;85.30;19.42;;;1.80;46.50;;;;;;5004118;28;20198;-88
2022/03/10 06:41:55;;;;;;;87.37;18.83;;;1.80;48.50;;;;;;5002414;28;20166;-87
2022/03/10 06:44:21;;;;;;;84.07;18.80;;;1.70;48.70;;;;;;5003841;28;20184;-88
2022/03/10 06:46:46;;;;;;;87.83;19.73;;;1.70;51.60;;;;;;5002277;28;20704;-88
2022/03/10 06:49:12;;;;;;;83.10;17.77;;;1.70;51.80;;;;;;5002935;28;20190;-88
2022/03/10 06:51:38;;;;;;;82.40;17.02;;;1.70;51.30;;;;;;5003724;28;20197;-89
2022/03/10 06:54:04;;;;;;;84.40;18.42;;;1.70;51.80;;;;;;5002316;28;20166;-89
2022/03/10 06:56:30;;;;;;;88.53;17.87;;;1.80;50.90;;;;;;5002922;28;20232;-89
2022/03/10 06:58:56;;;;;;;88.40;18.77;;;1.80;51.20;;;;;;5001865;28;20410;-88
2022/03/10 07:01:22;;;;;;;81.20;17.08;;;1.80;51.50;;;;;;5002464;28;20386;-86
2022/03/10 07:03:48;;;;;;;89.13;18.93;;;1.90;50.60;;;;;;4998146;28;20238;-86
2022/03/10 07:06:13;;;;;;;90.00;17.20;;;2.00;49.90;;;;;;4997436;28;20202;-86
2022/03/10 07:08:39;;;;;;;84.77;17.63;;;2.10;49.50;;;;;;4998676;28;20166;-86
2022/03/10 07:11:06;;;;;;;82.20;19.52;;;2.10;48.70;;;;;;4998464;28;20537;-87
2022/03/10 07:13:34;;;;;;;85.20;18.30;;;2.30;48.10;;;;;;4999717;28;20170;-86
2022/03/10 07:15:59;;;;;;;83.40;17.90;;;2.40;46.90;;;;;;5002885;28;20254;-87
2022/03/10 07:18:25;;;;;;;90.63;18.67;;;2.40;45.20;;;;;;5002400;28;20194;-86
2022/03/10 07:20:51;;;;;;;90.30;16.47;;;2.50;44.90;;;;;;5002755;28;20166;-87
2022/03/10 07:23:17;;;;;;;86.40;18.27;;;2.50;44.80;;;;;;4998854;28;20457;-86
2022/03/10 07:25:43;;;;;;;85.07;18.90;;;2.50;47.00;;;;;;5001159;28;20445;-86
2022/03/10 07:28:09;;;;;;;84.27;17.20;;;2.60;45.00;;;;;;4999780;28;20166;-86
2022/03/10 07:30:35;;;;;;;83.90;15.88;;;2.70;44.80;;;;;;4997882;28;20496;-86
2022/03/10 07:33:01;;;;;;;85.73;17.23;;;2.80;42.90;;;;;;4996534;28;20606;-86
2022/03/10 07:35:27;;;;;;;82.17;15.20;;;2.80;41.80;;;;;;4995072;28;20181;-85
2022/03/10 07:37:55;;;;;;;83.82;15.07;;;2.90;40.30;;;;;;4996316;28;20174;-86
2022/03/10 07:40:22;;;;;;;83.65;14.85;;;3.00;39.00;;;;;;4998424;28;20178;-86
2022/03/10 07:42:47;;;;;;;85.00;15.32;;;3.10;38.10;;;;;;4996941;28;20170;-86
2022/03/10 07:45:13;;;;;;;86.00;15.43;;;3.20;36.70;;;;;;4997293;28;20677;-86
2022/03/10 07:47:39;;;;;;;81.57;13.63;;;3.20;36.50;;;;;;4997356;28;20190;-87
2022/03/10 07:50:06;;;;;;;84.47;14.75;;;3.30;35.60;;;;;;4997383;28;20429;-86
2022/03/10 07:52:33;;;;;;;81.00;14.95;;;3.40;34.10;;;;;;4996967;28;20233;-86
2022/03/10 07:54:59;;;;;;;86.47;17.02;;;3.40;32.60;;;;;;4995951;28;20585;-86
2022/03/10 07:57:24;;;;;;;86.73;13.90;;;3.50;29.80;;;;;;4996794;28;20195;-86
2022/03/10 07:59:52;;;;;;;81.47;13.97;;;3.70;27.40;;;;;;4994762;28;20166;-86
2022/03/10 08:02:21;;;;;;;81.32;12.63;;;3.80;27.10;;;;;;4995260;28;20159;-86
2022/03/10 08:04:47;;;;;;;79.53;12.20;;;3.90;25.20;;;;;;4997445;28;20222;-86
2022/03/10 08:07:12;;;;;;;79.55;13.77;;;4.10;15.60;;;;;;4997236;28;20221;-87
2022/03/10 08:09:38;;;;;;;78.17;12.73;;;4.30;9.10;;;;;;4996746;28;20692;-87
2022/03/10 08:12:04;;;;;;;78.37;12.70;;;4.40;6.40;;;;;;4996302;28;20198;-87
2022/03/10 08:14:30;;;;;;;82.55;13.20;;;4.60;1.10;;;;;;4996580;28;20751;-86
2022/03/10 08:16:56;;;;;;;79.90;13.07;;;4.60;1.00;;;;;;4997621;28;20246;-86
2022/03/10 08:19:21;;;;;;;79.63;12.60;;;4.70;1.00;;;;;;4998452;28;20170;-86
2022/03/10 08:21:48;;;;;;;79.80;13.27;;;4.80;1.00;;;;;;5000221;28;20178;-87
2022/03/10 08:24:14;;;;;;;78.63;13.10;;;4.90;1.00;;;;;;4998887;28;20178;-87
2022/03/10 08:26:40;;;;;;;79.25;13.23;;;5.00;1.00;;;;;;4999717;28;20198;-86
2022/03/10 08:29:06;;;;;;;78.90;13.73;;;5.20;1.00;;;;;;4997991;28;20170;-86
2022/03/10 08:31:32;;;;;;;83.00;13.57;;;5.30;1.00;;;;;;4999030;28;20170;-87
2022/03/10 08:33:58;;;;;;;82.17;14.20;;;5.40;1.00;;;;;;5000297;28;20170;-87
2022/03/10 08:36:24;;;;;;;83.70;16.07;;;5.40;1.00;;;;;;4999878;28;20434;-86
2022/03/10 08:38:49;;;;;;;78.73;14.00;;;5.50;1.00;;;;;;4999060;28;20167;-86
2022/03/10 08:41:15;;;;;;;83.03;15.70;;;5.60;1.00;;;;;;4998959;28;20413;-86
2022/03/10 08:43:41;;;;;;;79.87;13.20;;;5.70;1.00;;;;;;5000151;28;20410;-87
2022/03/10 08:46:07;;;;;;;78.80;13.40;;;5.80;1.00;;;;;;4998012;28;21051;-87
2022/03/10 08:48:34;;;;;;;79.67;14.33;;;5.90;1.00;;;;;;4998279;28;20405;-86
2022/03/10 08:51:02;;;;;;;82.93;15.00;;;6.00;1.00;;;;;;4998081;28;20422;-86
2022/03/10 08:53:29;;;;;;;79.38;13.60;;;6.10;1.00;;;;;;4999528;28;20202;-86
2022/03/10 08:55:54;;;;;;;79.13;14.20;;;6.20;1.00;;;;;;4997826;28;20198;-86
2022/03/10 08:58:20;;;;;;;78.00;15.63;;;6.30;1.00;;;;;;4999283;28;20230;-87
2022/03/10 09:00:46;;;;;;;81.60;20.77;;;6.40;1.00;;;;;;4998499;28;20436;-87
2022/03/10 09:03:12;;;;;;;83.47;22.60;;;6.50;1.00;;;;;;4998437;28;20179;-86
2022/03/10 09:05:40;;;;;;;82.13;19.37;;;6.50;1.00;;;;;;4999221;28;20531;-86
2022/03/10 09:08:09;;;;;;;83.38;21.85;;;6.60;1.00;;;;;;4998239;28;20540;-86
2022/03/10 09:10:35;;;;;;;85.72;21.60;;;6.80;1.00;;;;;;4998455;28;20295;-87
2022/03/10 09:13:01;;;;;;;80.63;18.85;;;6.90;1.00;;;;;;4997288;28;20258;-86
2022/03/10 09:15:27;;;;;;;83.80;15.67;;;6.90;1.00;;;;;;4998990;28;20194;-87
2022/03/10 09:17:56;;;;;;;83.70;15.70;;;7.00;1.00;;;;;;4999685;28;20171;-87
2022/03/10 09:20:22;;;;;;;80.78;15.07;;;7.10;1.00;;;;;;4997868;28;20416;-87
2022/03/10 09:22:48;;;;;;;78.38;17.35;;;7.20;1.00;;;;;;4998308;28;20174;-86
2022/03/10 09:25:14;;;;;;;81.13;19.98;;;7.30;1.00;;;;;;4996860;28;20600;-86
2022/03/10 09:27:41;;;;;;;84.30;23.50;;;7.40;1.00;;;;;;5001178;28;20221;-86
2022/03/10 09:30:09;;;;;;;83.00;24.77;;;7.50;1.00;;;;;;5001691;28;20406;-86
2022/03/10 09:32:36;;;;;;;80.60;23.27;;;7.60;1.00;;;;;;4999326;28;20188;-86
2022/03/10 09:35:04;;;;;;;83.00;19.73;;;7.70;1.00;;;;;;4999580;28;20155;-85
2022/03/10 09:37:29;;;;;;;83.43;15.50;;;7.80;1.00;;;;;;4999410;28;20256;-86
2022/03/10 09:39:55;;;;;;;86.47;16.50;;;8.00;1.00;;;;;;4999884;28;20162;-85
2022/03/10 09:42:26;;;;;;;81.67;17.23;;;8.10;1.00;;;;;;5000422;28;20151;-86
2022/03/10 09:44:53;;;;;;;84.00;20.70;;;8.20;1.00;;;;;;4999948;28;20166;-86
2022/03/10 09:47:18;;;;;;;91.60;32.35;;;8.30;1.00;;;;;;5001434;28;20188;-86
2022/03/10 09:49:45;;;;;;;90.00;30.87;;;8.50;1.00;;;;;;5000899;28;20159;-86
2022/03/10 09:52:14;;;;;;;94.35;41.92;;;8.70;1.00;;;;;;5001367;28;20173;-86
2022/03/10 09:54:39;;;;;;;92.35;42.85;;;8.80;1.00;;;;;;5001269;28;20165;-85
2022/03/10 09:57:07;;;;;;;93.30;38.27;;;9.00;1.00;;;;;;5000117;28;20660;-86
2022/03/10 09:59:33;;;;;;;88.07;17.50;;;9.20;1.00;;;;;;5001752;28;20178;-86
2022/03/10 10:02:01;;;;;;;85.90;17.73;;;9.40;1.00;;;;;;4999655;28;20170;-87
2022/03/10 10:04:29;;;;;;;87.63;24.17;;;9.40;1.00;;;;;;5000610;28;20233;-85
2022/03/10 10:07:03;;;;;;;88.38;32.03;;;9.50;1.00;;;;;;4999548;28;20202;-85
2022/03/10 10:09:42;;;;;;;85.13;32.35;;;9.60;1.00;;;;;;5002066;28;20646;-86
2022/03/10 10:12:09;;;;;;;89.85;35.25;;;9.90;1.00;;;;;;5001791;28;20245;-86
2022/03/10 10:14:37;;;;;;;85.85;22.40;;;10.00;1.00;;;;;;5000637;28;20173;-85
2022/03/10 10:17:03;;;;;;;81.68;23.92;;;10.20;1.00;;;;;;4999759;28;20273;-85
2022/03/10 10:19:32;;;;;;;82.60;33.08;;;10.40;1.00;;;;;;5001757;28;20571;-85
2022/03/10 10:22:09;;;;;;;86.97;28.77;;;10.60;1.00;;;;;;5002258;28;20586;-86
2022/03/10 10:24:35;;;;;;;85.10;21.58;;;10.70;1.00;;;;;;5005442;28;20230;-86
2022/03/10 10:27:15;;;;;;;88.13;28.83;;;10.80;1.00;;;;;;5005411;28;20205;-86
2022/03/10 10:29:48;;;;;;;84.55;26.13;;;11.00;1.00;;;;;;5005932;28;20162;-86
2022/03/10 10:32:36;;;;;;;81.90;30.60;;;11.10;1.00;;;;;;5006540;28;20190;-86
2022/03/10 10:35:13;;;;;;;82.15;29.50;;;11.20;1.00;;;;;;5004800;28;20154;-86
2022/03/10 10:37:42;;;;;;;82.88;21.20;;;11.40;1.00;;;;;;5005866;28;20193;-86
2022/03/10 10:40:09;;;;;;;80.63;20.95;;;11.50;1.00;;;;;;5006569;28;20170;-87
2022/03/10 10:42:38;;;;;;;83.03;23.40;;;11.60;1.00;;;;;;5006419;28;20522;-87
2022/03/10 10:45:25;;;;;;;83.20;25.58;;;11.70;1.00;;;;;;5004802;28;20198;-86
2022/03/10 10:48:03;;;;;;;82.53;21.23;;;11.80;1.00;;;;;;5007152;28;20166;-87
2022/03/10 10:50:37;;;;;;;78.45;21.85;;;12.00;1.00;;;;;;5005657;28;20181;-87
2022/03/10 10:53:03;;;;;;;82.03;17.30;;;12.10;1.00;;;;;;5005129;28;20631;-86
2022/03/10 10:55:38;;;;;;;79.85;18.85;;;12.20;1.00;;;;;;5004314;28;20166;-87
2022/03/10 10:58:25;;;;;;;78.60;13.20;;;12.30;1.00;;;;;;5004392;28;20173;-86
2022/03/10 11:00:51;;;;;;;82.60;19.00;;;12.50;1.00;;;;;;5005507;28;20179;-86
2022/03/10 11:03:28;;;;;;;81.40;22.55;;;12.60;1.00;;;;;;5004547;28;20181;-87
2022/03/10 11:05:54;;;;;;;82.20;29.92;;;12.60;1.00;;;;;;5004411;28;20210;-86
2022/03/10 11:08:22;;;;;;;85.57;31.35;;;12.80;1.00;;;;;;5003658;28;20172;-85
2022/03/10 11:10:49;;;;;;;84.88;26.42;;;12.90;1.00;;;;;;5063200;23;20229;-83
2022/03/10 11:13:15;;;;;;;80.40;19.23;;;13.00;1.00;;;;;;4980735;28;20218;-82
2022/03/10 11:15:42;;;;;;;78.13;17.47;;;13.10;1.00;;;;;;4980902;28;20155;-83
2022/03/10 11:18:14;;;;;;;79.57;20.20;;;13.10;1.00;;;;;;4979069;28;20402;-83
2022/03/10 11:20:54;;;;;;;79.50;23.58;;;13.20;1.00;;;;;;4979682;28;20215;-82
2022/03/10 11:23:47;;;;;;;81.55;23.88;;;13.30;1.00;;;;;;4980852;28;20167;-83
2022/03/10 11:26:22;;;;;;;80.10;24.05;;;13.40;1.00;;;;;;4980098;28;20203;-82
2022/03/10 11:28:50;;;;;;;79.72;17.45;;;13.60;1.00;;;;;;4981212;28;20485;-83
2022/03/10 11:31:16;;;;;;;77.43;16.65;;;13.60;1.00;;;;;;4980257;28;20170;-83
2022/03/10 11:33:43;;;;;;;80.10;17.08;;;13.70;1.00;;;;;;4979358;28;20262;-82
2022/03/10 11:36:24;;;;;;;79.15;15.90;;;13.70;1.00;;;;;;4979159;28;20191;-82
2022/03/10 11:39:04;;;;;;;78.90;18.00;;;13.70;1.00;;;;;;4980575;28;20194;-82
2022/03/10 11:41:47;;;;;;;77.95;20.27;;;13.80;1.00;;;;;;4980523;28;20210;-83
2022/03/10 11:44:18;;;;;;;79.65;15.90;;;13.70;1.00;;;;;;4979037;28;20194;-83
2022/03/10 11:46:59;;;;;;;80.57;23.87;;;13.90;1.00;;;;;;4980538;28;20203;-83
2022/03/10 11:49:39;;;;;;;76.78;20.35;;;14.00;1.00;;;;;;4979616;28;20486;-83
2022/03/10 11:52:21;;;;;;;81.88;23.85;;;14.00;1.00;;;;;;4978835;28;20166;-83
2022/03/10 11:55:06;;;;;;;77.82;22.40;;;14.10;1.00;;;;;;4979036;28;20246;-83
2022/03/10 11:57:52;;;;;;;80.10;23.00;;;14.20;1.00;;;;;;4979974;28;20191;-83
2022/03/10 12:00:18;;;;;;;77.57;21.20;;;14.30;1.00;;;;;;4980544;28;20174;-83
2022/03/10 12:02:44;;;;;;;75.10;16.07;;;14.40;1.00;;;;;;4980779;28;20410;-82
2022/03/10 12:05:11;;;;;;;73.63;15.00;;;14.40;1.00;;;;;;4979269;28;20811;-83
2022/03/10 12:07:41;;;;;;;77.40;18.57;;;14.40;1.00;;;;;;4979145;28;20269;-83
2022/03/10 12:10:11;;;;;;;76.77;18.57;;;14.60;1.00;;;;;;4979450;28;20844;-83
2022/03/10 12:12:42;;;;;;;75.10;15.87;;;14.60;1.00;;;;;;4980616;28;20864;-83
2022/03/10 12:15:43;;;;;;;72.68;14.95;;;14.40;1.00;;;;;;4981107;28;20441;-83
2022/03/10 12:18:24;;;;;;;75.37;16.10;;;14.40;1.00;;;;;;4979931;28;20183;-84
2022/03/10 12:20:55;;;;;;;74.90;16.13;;;14.50;1.00;;;;;;4980433;28;20383;-83
2022/03/10 12:23:25;;;;;;;84.87;19.30;;;14.70;1.00;;;;;;4979510;28;20398;-83
2022/03/10 12:25:58;;;;;;;73.50;17.23;;;14.80;1.00;;;;;;4980555;28;20454;-83
2022/03/10 12:28:26;;;;;;;75.03;13.77;;;15.00;1.00;;;;;;4980560;28;20802;-83
2022/03/10 12:31:10;;;;;;;73.00;12.70;;;15.10;1.00;;;;;;4980877;28;20399;-83
2022/03/10 12:33:54;;;;;;;72.97;11.80;;;14.90;1.00;;;;;;4979423;28;20502;-83
2022/03/10 12:36:32;;;;;;;74.20;14.40;;;14.80;1.00;;;;;;4979916;28;21021;-83
2022/03/10 12:39:00;;;;;;;72.17;11.40;;;14.90;1.00;;;;;;4980629;28;20406;-83
2022/03/10 12:41:31;;;;;;;76.00;10.70;;;14.90;1.00;;;;;;4979352;28;20403;-83
2022/03/10 12:43:57;;;;;;;75.53;10.17;;;14.90;1.00;;;;;;4979870;28;20403;-83
2022/03/10 12:46:24;;;;;;;77.40;12.33;;;14.90;1.00;;;;;;4978512;28;20458;-83
2022/03/10 12:49:06;;;;;;;72.30;10.67;;;14.90;1.00;;;;;;4980027;28;20771;-84
2022/03/10 12:51:35;;;;;;;74.27;10.50;;;15.00;1.00;;;;;;4980548;28;20389;-83